createdAt,value
2019-05-01T00:04:04.081Z,12.90
2019-05-01T00:09:07.976Z,12.90
2019-05-01T00:14:10.593Z,12.80
2019-05-01T00:19:13.191Z,12.80
2019-05-01T00:24:15.765Z,12.80
2019-05-01T00:29:18.333Z,12.70
2019-05-01T00:34:20.901Z,12.70
2019-05-01T00:39:23.491Z,12.70
2019-05-01T00:44:26.113Z,12.60
2019-05-01T00:49:28.637Z,12.60
2019-05-01T00:54:31.281Z,12.50
2019-05-01T00:59:41.211Z,12.50
2019-05-01T01:04:43.865Z,12.40
2019-05-01T01:09:46.403Z,12.40
2019-05-01T01:14:48.979Z,12.40
2019-05-01T01:19:51.569Z,12.30
2019-05-01T01:24:54.217Z,12.30
2019-05-01T01:29:56.908Z,12.30
2019-05-01T01:34:59.585Z,12.20
2019-05-01T01:40:02.283Z,12.20
2019-05-01T01:45:12.576Z,12.20
2019-05-01T01:50:15.261Z,12.10
2019-05-01T01:55:18.177Z,12.10
2019-05-01T02:00:21.851Z,12.00
2019-05-01T02:05:28.784Z,11.90
2019-05-01T02:10:42.325Z,11.90
2019-05-01T02:15:34.067Z,11.90
2019-05-01T02:20:36.741Z,11.90
2019-05-01T02:25:39.439Z,11.80
2019-05-01T02:30:43.976Z,11.80
2019-05-01T02:35:46.697Z,11.70
2019-05-01T02:40:52.845Z,11.70
2019-05-01T02:45:56.192Z,11.60
2019-05-01T02:50:59.556Z,11.60
2019-05-01T02:56:07.960Z,11.60
2019-05-01T03:01:14.191Z,11.50
2019-05-01T03:06:13.557Z,11.50
2019-05-01T03:11:16.157Z,11.50
2019-05-01T03:16:18.883Z,11.50
2019-05-01T03:21:26.695Z,11.40
2019-05-01T03:26:30.211Z,11.40
2019-05-01T03:31:32.971Z,11.40
2019-05-01T03:36:35.623Z,11.40
2019-05-01T03:41:38.343Z,11.40
2019-05-01T03:46:40.958Z,11.40
2019-05-01T03:51:43.861Z,11.40
2019-05-01T03:56:46.596Z,11.40
2019-05-01T04:02:02.712Z,11.40
2019-05-01T04:07:05.367Z,11.50
2019-05-01T04:12:08.092Z,11.50
2019-05-01T04:17:15.509Z,11.50
2019-05-01T04:22:18.202Z,11.50
2019-05-01T04:27:24.850Z,11.40
2019-05-01T04:32:30.250Z,11.40
2019-05-01T04:37:32.942Z,11.40
2019-05-01T04:42:35.638Z,11.40
2019-05-01T04:47:38.274Z,11.50
2019-05-01T04:52:40.903Z,11.50
2019-05-01T04:57:43.538Z,11.50
2019-05-01T05:03:04.554Z,11.50
2019-05-01T05:07:57.599Z,11.50
2019-05-01T05:13:19.267Z,11.50
2019-05-01T05:18:21.961Z,11.60
2019-05-01T05:23:24.623Z,11.50
2019-05-01T05:28:27.345Z,11.50
2019-05-01T05:33:30.045Z,11.30
2019-05-01T05:38:38.659Z,11.20
2019-05-01T05:43:41.428Z,11.30
2019-05-01T05:48:44.092Z,11.40
2019-05-01T05:53:47.699Z,11.50
2019-05-01T05:58:52.427Z,11.50
2019-05-01T06:04:00.865Z,11.60
2019-05-01T06:09:04.197Z,11.70
2019-05-01T06:14:18.356Z,11.80
2019-05-01T06:19:29.325Z,11.80
2019-05-01T06:24:35.747Z,11.90
2019-05-01T06:29:38.099Z,11.90
2019-05-01T06:34:40.893Z,11.90
2019-05-01T06:39:48.037Z,12.00
2019-05-01T06:44:50.149Z,12.00
2019-05-01T06:50:28.455Z,12.00
2019-05-01T06:55:31.103Z,12.20
2019-05-01T07:00:34.173Z,12.50
2019-05-01T07:05:36.914Z,12.60
2019-05-01T07:10:44.179Z,12.70
2019-05-01T07:15:42.371Z,13.00
2019-05-01T07:20:51.532Z,13.10
2019-05-01T07:25:50.911Z,13.30
2019-05-01T07:30:56.513Z,13.50
2019-05-01T07:35:59.225Z,13.50
2019-05-01T07:41:03.309Z,13.70
2019-05-01T07:46:13.781Z,13.90
2019-05-01T07:51:15.615Z,14.20
2019-05-01T07:56:18.399Z,14.30
2019-05-01T08:02:25.975Z,14.70
2019-05-01T08:07:32.313Z,15.00
2019-05-01T08:12:30.826Z,15.20
2019-05-01T08:17:34.994Z,15.30
2019-05-01T08:22:39.110Z,15.60
2019-05-01T08:27:50.954Z,15.90
2019-05-01T08:33:30.177Z,16.20
2019-05-01T08:38:34.334Z,16.50
2019-05-01T08:43:35.513Z,16.90
2019-05-01T08:48:44.321Z,17.20
2019-05-01T08:53:46.948Z,17.40
2019-05-01T08:58:50.570Z,17.90
2019-05-01T09:03:54.218Z,18.10
2019-05-01T09:08:55.045Z,18.40
2019-05-01T09:13:59.028Z,18.60
2019-05-01T09:19:00.262Z,19.00
2019-05-01T09:24:02.953Z,19.20
2019-05-01T09:29:11.091Z,19.60
2019-05-01T09:34:13.970Z,19.90
2019-05-01T09:39:12.869Z,20.00
2019-05-01T09:44:15.513Z,20.30
2019-05-01T09:49:19.513Z,20.10
2019-05-01T09:54:26.509Z,20.20
2019-05-01T09:59:29.239Z,20.60
2019-05-01T10:04:32.431Z,21.10
2019-05-01T10:09:34.568Z,21.40
2019-05-01T10:14:37.496Z,21.60
2019-05-01T10:19:39.983Z,22.00
2019-05-01T10:24:42.552Z,22.40
2019-05-01T10:30:55.626Z,21.80
2019-05-01T10:36:17.873Z,21.20
2019-05-01T10:41:12.522Z,21.00
2019-05-01T10:46:15.101Z,20.90
2019-05-01T10:51:17.695Z,21.60
2019-05-01T10:56:20.486Z,22.00
2019-05-01T11:01:27.671Z,22.40
2019-05-01T11:06:31.913Z,22.60
2019-05-01T11:11:35.277Z,23.00
2019-05-01T11:16:38.217Z,23.50
2019-05-01T11:21:41.230Z,23.80
2019-05-01T11:26:44.342Z,23.80
2019-05-01T11:31:51.805Z,23.70
2019-05-01T11:37:05.046Z,23.50
2019-05-01T11:42:11.435Z,23.00
2019-05-01T11:47:14.073Z,22.50
2019-05-01T11:52:17.305Z,22.90
2019-05-01T11:57:19.873Z,23.50
2019-05-01T12:02:22.623Z,23.90
2019-05-01T12:07:25.327Z,23.40
2019-05-01T12:12:28.043Z,22.80
2019-05-01T12:17:35.149Z,22.50
2019-05-01T12:22:37.862Z,22.60
2019-05-01T12:27:40.603Z,22.90
2019-05-01T12:32:43.335Z,22.30
2019-05-01T12:37:45.958Z,22.40
2019-05-01T12:42:48.718Z,22.50
2019-05-01T12:47:54.179Z,23.00
2019-05-01T12:53:02.632Z,22.60
2019-05-01T12:58:05.261Z,22.40
2019-05-01T13:03:07.920Z,22.20
2019-05-01T13:08:10.899Z,22.00
2019-05-01T13:13:13.597Z,22.00
2019-05-01T13:18:16.385Z,21.80
2019-05-01T13:23:19.023Z,21.70
2019-05-01T13:28:28.935Z,21.70
2019-05-01T13:33:31.723Z,21.70
2019-05-01T13:38:34.345Z,21.30
2019-05-01T13:43:36.985Z,21.40
2019-05-01T13:48:39.560Z,21.40
2019-05-01T13:53:42.866Z,21.40
2019-05-01T13:58:45.734Z,21.80
2019-05-01T14:03:48.425Z,21.90
2019-05-01T14:08:51.150Z,22.20
2019-05-01T14:13:53.773Z,22.10
2019-05-01T14:18:56.395Z,22.50
2019-05-01T14:24:04.374Z,22.60
2019-05-01T14:29:07.433Z,22.90
2019-05-01T14:34:10.017Z,23.10
2019-05-01T14:39:13.035Z,23.40
2019-05-01T14:44:15.717Z,23.40
2019-05-01T14:49:18.389Z,23.50
2019-05-01T14:54:20.985Z,23.60
2019-05-01T14:59:23.648Z,23.80
2019-05-01T15:04:26.291Z,23.50
2019-05-01T15:09:29.016Z,23.40
2019-05-01T15:14:43.201Z,23.40
2019-05-01T15:19:49.949Z,23.60
2019-05-01T15:24:52.500Z,23.70
2019-05-01T15:29:55.629Z,23.70
2019-05-01T15:34:58.205Z,23.40
2019-05-01T15:40:03.506Z,23.10
2019-05-01T15:45:06.331Z,22.60
2019-05-01T15:50:09.022Z,22.40
2019-05-01T15:55:11.667Z,22.60
2019-05-01T16:00:15.301Z,22.60
2019-05-01T16:05:18.214Z,22.80
2019-05-01T16:10:23.666Z,22.90
2019-05-01T16:15:30.915Z,23.00
2019-05-01T16:20:33.759Z,23.00
2019-05-01T16:25:36.395Z,23.00
2019-05-01T16:30:39.746Z,22.90
2019-05-01T16:35:42.729Z,22.60
2019-05-01T16:40:52.886Z,22.50
2019-05-01T16:45:56.091Z,22.30
2019-05-01T16:50:58.835Z,22.20
2019-05-01T16:56:02.455Z,22.10
2019-05-01T17:01:10.403Z,22.00
2019-05-01T17:06:20.714Z,22.00
2019-05-01T17:11:27.908Z,21.80
2019-05-01T17:16:30.569Z,21.80
2019-05-01T17:21:33.348Z,21.70
2019-05-01T17:26:35.949Z,21.70
2019-05-01T17:31:38.635Z,21.70
2019-05-01T17:36:41.298Z,21.70
2019-05-01T17:41:44.024Z,21.60
2019-05-01T17:46:48.679Z,21.60
2019-05-01T17:51:50.421Z,21.50
2019-05-01T17:56:53.891Z,21.30
2019-05-01T18:03:01.531Z,21.10
2019-05-01T18:08:04.253Z,20.90
2019-05-01T18:13:06.894Z,20.90
2019-05-01T18:18:10.710Z,20.60
2019-05-01T18:23:18.104Z,20.40
2019-05-01T18:28:29.925Z,20.30
2019-05-01T18:33:30.970Z,20.20
2019-05-01T18:38:42.962Z,20.20
2019-05-01T18:43:43.108Z,20.10
2019-05-01T18:48:46.531Z,19.90
2019-05-01T18:53:49.555Z,19.70
2019-05-01T18:58:52.502Z,19.60
2019-05-01T19:03:55.879Z,19.40
2019-05-01T19:08:58.569Z,19.40
2019-05-01T19:14:01.616Z,19.30
2019-05-01T19:19:04.468Z,19.20
2019-05-01T19:24:07.751Z,19.00
2019-05-01T19:29:10.476Z,19.00
2019-05-01T19:34:13.997Z,19.00
2019-05-01T19:39:16.977Z,19.00
2019-05-01T19:44:24.141Z,18.90
2019-05-01T19:49:29.495Z,18.70
2019-05-01T19:54:30.068Z,18.60
2019-05-01T19:59:32.518Z,18.60
2019-05-01T20:04:35.253Z,18.50
2019-05-01T20:09:38.031Z,18.50
2019-05-01T20:14:41.193Z,18.50
2019-05-01T20:19:43.789Z,18.60
2019-05-01T20:24:46.416Z,18.70
2019-05-01T20:29:49.147Z,18.50
2019-05-01T20:34:52.725Z,18.30
2019-05-01T20:39:54.444Z,18.30
2019-05-01T20:45:04.406Z,18.10
2019-05-01T20:49:59.705Z,18.00
2019-05-01T20:55:02.513Z,18.20
2019-05-01T21:00:05.359Z,18.40
2019-05-01T21:06:14.822Z,18.30
2019-05-01T21:11:20.894Z,18.40
2019-05-01T21:16:23.638Z,18.10
2019-05-01T21:21:26.293Z,17.90
2019-05-01T21:26:28.977Z,17.90
2019-05-01T21:31:31.595Z,17.80
2019-05-01T21:36:34.238Z,17.60
2019-05-01T21:41:36.865Z,17.50
2019-05-01T21:46:39.497Z,17.40
2019-05-01T21:51:45.875Z,17.60
2019-05-01T21:56:44.836Z,17.80
2019-05-01T22:01:47.565Z,17.60
2019-05-01T22:06:51.892Z,17.30
2019-05-01T22:11:52.815Z,17.20
2019-05-01T22:16:56.861Z,17.20
2019-05-01T22:22:19.954Z,17.30
2019-05-01T22:27:27.757Z,17.40
2019-05-01T22:32:35.369Z,17.40
2019-05-01T22:37:38.109Z,17.10
2019-05-01T22:42:40.781Z,16.90
2019-05-01T22:47:46.039Z,16.80
2019-05-01T22:52:46.123Z,16.70
2019-05-01T22:57:48.808Z,16.60
2019-05-01T23:02:51.772Z,16.60
2019-05-01T23:07:57.028Z,16.60
2019-05-01T23:12:57.169Z,16.80
2019-05-01T23:17:59.806Z,16.70
2019-05-01T23:23:02.368Z,16.80
2019-05-01T23:28:06.010Z,17.00
2019-05-01T23:33:07.912Z,16.70
2019-05-01T23:38:10.482Z,16.50
2019-05-01T23:43:13.043Z,16.70
2019-05-01T23:48:15.615Z,16.90
2019-05-01T23:53:18.239Z,16.90
2019-05-01T23:58:20.869Z,17.00
